sensor_id;sensor_type;location;lat;lon;timestamp;pressure;altitude;pressure_sealevel;temperature;humidity
70815;BME280;58428;49.478;10.986;2023-04-04T00:07:41;99392.13;;;2.10;100.00
70815;BME280;58428;49.478;10.986;2023-04-04T00:10:41;99390.91;;;2.18;100.00
70815;BME280;58428;49.478;10.986;2023-04-04T00:14:04;99397.41;;;2.26;100.00
70815;BME280;58428;49.478;10.986;2023-04-04T00:16:53;99393.94;;;2.26;100.00
70815;BME280;58428;49.478;10.986;2023-04-04T00:19:58;99390.03;;;2.33;100.00
70815;BME280;58428;49.478;10.986;2023-04-04T00:26:14;99379.53;;;2.48;100.00
70815;BME280;58428;49.478;10.986;2023-04-04T00:29:01;99382.22;;;2.53;100.00
70815;BME280;58428;49.478;10.986;2023-04-04T00:31:47;99379.31;;;2.55;100.00
70815;BME280;58428;49.478;10.986;2023-04-04T00:34:41;99375.06;;;2.58;100.00
70815;BME280;58428;49.478;10.986;2023-04-04T00:37:54;99372.66;;;2.57;100.00
70815;BME280;58428;49.478;10.986;2023-04-04T00:40:28;99372.47;;;2.63;100.00
70815;BME280;58428;49.478;10.986;2023-04-04T00:43:25;99372.84;;;2.77;100.00
70815;BME280;58428;49.478;10.986;2023-04-04T00:46:32;99374.00;;;2.86;100.00
70815;BME280;58428;49.478;10.986;2023-04-04T00:49:27;99370.00;;;2.88;100.00
70815;BME280;58428;49.478;10.986;2023-04-04T00:58:54;99367.19;;;2.99;100.00
70815;BME280;58428;49.478;10.986;2023-04-04T01:15:05;99361.16;;;3.14;100.00
70815;BME280;58428;49.478;10.986;2023-04-04T01:25:09;99355.78;;;3.09;100.00
70815;BME280;58428;49.478;10.986;2023-04-04T01:27:58;99353.31;;;3.02;100.00
70815;BME280;58428;49.478;10.986;2023-04-04T01:37:43;99352.78;;;2.74;100.00
70815;BME280;58428;49.478;10.986;2023-04-04T01:40:37;99348.75;;;2.72;100.00
70815;BME280;58428;49.478;10.986;2023-04-04T01:43:09;99350.09;;;2.69;100.00
70815;BME280;58428;49.478;10.986;2023-04-04T01:45:37;99360.72;;;2.64;100.00
70815;BME280;58428;49.478;10.986;2023-04-04T01:48:06;99349.78;;;2.66;100.00
70815;BME280;58428;49.478;10.986;2023-04-04T01:51:00;99352.69;;;2.64;100.00
70815;BME280;58428;49.478;10.986;2023-04-04T01:57:07;99354.63;;;2.43;100.00
70815;BME280;58428;49.478;10.986;2023-04-04T01:59:55;99346.69;;;2.26;100.00
70815;BME280;58428;49.478;10.986;2023-04-04T02:06:13;99347.44;;;2.01;100.00
70815;BME280;58428;49.478;10.986;2023-04-04T02:12:07;99342.50;;;1.88;100.00
70815;BME280;58428;49.478;10.986;2023-04-04T02:14:38;99344.53;;;1.81;100.00
70815;BME280;58428;49.478;10.986;2023-04-04T02:17:17;99337.59;;;1.80;100.00
70815;BME280;58428;49.478;10.986;2023-04-04T02:20:07;99349.50;;;1.73;100.00
70815;BME280;58428;49.478;10.986;2023-04-04T02:28:57;99340.31;;;1.64;100.00
70815;BME280;58428;49.478;10.986;2023-04-04T02:31:43;99339.13;;;1.55;100.00
70815;BME280;58428;49.478;10.986;2023-04-04T02:34:27;99337.94;;;1.46;100.00
70815;BME280;58428;49.478;10.986;2023-04-04T02:37:33;99328.06;;;1.46;100.00
70815;BME280;58428;49.478;10.986;2023-04-04T02:40:20;99324.03;;;1.44;100.00
70815;BME280;58428;49.478;10.986;2023-04-04T02:45:59;99326.56;;;1.34;100.00
70815;BME280;58428;49.478;10.986;2023-04-04T02:48:27;99329.22;;;1.34;100.00
70815;BME280;58428;49.478;10.986;2023-04-04T02:51:20;99319.06;;;1.31;100.00
70815;BME280;58428;49.478;10.986;2023-04-04T02:54:30;99334.25;;;1.31;100.00
70815;BME280;58428;49.478;10.986;2023-04-04T02:57:14;99322.47;;;1.27;100.00
70815;BME280;58428;49.478;10.986;2023-04-04T03:00:22;99323.13;;;1.17;100.00
70815;BME280;58428;49.478;10.986;2023-04-04T03:02:55;99330.22;;;1.12;100.00
70815;BME280;58428;49.478;10.986;2023-04-04T03:05:43;99329.66;;;1.10;100.00
70815;BME280;58428;49.478;10.986;2023-04-04T03:08:08;99318.72;;;1.07;100.00
70815;BME280;58428;49.478;10.986;2023-04-04T03:10:59;99329.19;;;0.97;100.00
70815;BME280;58428;49.478;10.986;2023-04-04T03:13:45;99327.81;;;0.94;100.00
70815;BME280;58428;49.478;10.986;2023-04-04T03:16:50;99321.13;;;0.92;100.00
70815;BME280;58428;49.478;10.986;2023-04-04T03:19:33;99321.59;;;0.89;100.00
70815;BME280;58428;49.478;10.986;2023-04-04T03:22:27;99331.63;;;0.82;100.00
70815;BME280;58428;49.478;10.986;2023-04-04T03:24:53;99332.41;;;0.82;100.00
70815;BME280;58428;49.478;10.986;2023-04-04T03:27:21;99325.50;;;0.81;100.00
70815;BME280;58428;49.478;10.986;2023-04-04T03:29:46;99325.97;;;0.78;100.00
70815;BME280;58428;49.478;10.986;2023-04-04T03:32:12;99319.03;;;0.77;100.00
70815;BME280;58428;49.478;10.986;2023-04-04T03:34:45;99315.88;;;0.64;100.00
70815;BME280;58428;49.478;10.986;2023-04-04T03:37:10;99319.75;;;0.57;100.00
70815;BME280;58428;49.478;10.986;2023-04-04T03:39:36;99312.38;;;0.64;100.00
70815;BME280;58428;49.478;10.986;2023-04-04T03:42:04;99324.91;;;0.63;100.00
70815;BME280;58428;49.478;10.986;2023-04-04T03:44:34;99321.84;;;0.55;100.00
70815;BME280;58428;49.478;10.986;2023-04-04T03:47:02;99320.72;;;0.51;100.00
70815;BME280;58428;49.478;10.986;2023-04-04T03:49:34;99314.72;;;0.44;100.00
70815;BME280;58428;49.478;10.986;2023-04-04T03:55:54;99320.25;;;0.42;100.00
70815;BME280;58428;49.478;10.986;2023-04-04T03:58:23;99320.53;;;0.41;100.00
70815;BME280;58428;49.478;10.986;2023-04-04T04:00:53;99317.31;;;0.39;100.00
70815;BME280;58428;49.478;10.986;2023-04-04T04:03:27;99329.22;;;0.36;100.00
70815;BME280;58428;49.478;10.986;2023-04-04T04:05:55;99323.88;;;0.36;100.00
70815;BME280;58428;49.478;10.986;2023-04-04T04:08:23;99322.63;;;0.39;100.00
70815;BME280;58428;49.478;10.986;2023-04-04T04:10:48;99321.56;;;0.40;100.00
70815;BME280;58428;49.478;10.986;2023-04-04T04:13:16;99317.75;;;0.36;100.00
70815;BME280;58428;49.478;10.986;2023-04-04T04:16:00;99321.78;;;0.38;100.00
70815;BME280;58428;49.478;10.986;2023-04-04T04:18:28;99319.13;;;0.38;100.00
70815;BME280;58428;49.478;10.986;2023-04-04T04:21:06;99317.75;;;0.36;100.00
70815;BME280;58428;49.478;10.986;2023-04-04T04:23:34;99323.00;;;0.31;100.00
70815;BME280;58428;49.478;10.986;2023-04-04T04:26:02;99314.69;;;0.28;100.00
70815;BME280;58428;49.478;10.986;2023-04-04T04:28:34;99315.16;;;0.25;100.00
70815;BME280;58428;49.478;10.986;2023-04-04T04:31:07;99320.25;;;0.26;100.00
70815;BME280;58428;49.478;10.986;2023-04-04T04:33:34;99318.97;;;0.29;100.00
70815;BME280;58428;49.478;10.986;2023-04-04T04:36:18;99322.44;;;0.29;100.00
70815;BME280;58428;49.478;10.986;2023-04-04T04:38:44;99321.03;;;0.27;100.00
70815;BME280;58428;49.478;10.986;2023-04-04T04:41:32;99312.66;;;0.18;100.00
70815;BME280;58428;49.478;10.986;2023-04-04T04:44:06;99325.63;;;0.15;100.00
70815;BME280;58428;49.478;10.986;2023-04-04T04:46:32;99317.63;;;0.15;100.00
70815;BME280;58428;49.478;10.986;2023-04-04T04:49:00;99326.53;;;0.20;100.00
70815;BME280;58428;49.478;10.986;2023-04-04T04:51:31;99327.47;;;0.14;100.00
70815;BME280;58428;49.478;10.986;2023-04-04T04:53:57;99325.72;;;0.20;100.00
70815;BME280;58428;49.478;10.986;2023-04-04T04:56:24;99325.72;;;0.20;100.00
70815;BME280;58428;49.478;10.986;2023-04-04T04:58:52;99332.31;;;0.17;100.00
70815;BME280;58428;49.478;10.986;2023-04-04T05:01:18;99327.25;;;0.16;100.00
70815;BME280;58428;49.478;10.986;2023-04-04T05:03:43;99329.06;;;0.15;100.00
70815;BME280;58428;49.478;10.986;2023-04-04T05:06:11;99327.47;;;0.14;100.00
70815;BME280;58428;49.478;10.986;2023-04-04T05:08:39;99321.03;;;0.10;100.00
70815;BME280;58428;49.478;10.986;2023-04-04T05:11:10;99324.41;;;0.06;100.00
70815;BME280;58428;49.478;10.986;2023-04-04T05:13:36;99327.84;;;0.06;100.00
70815;BME280;58428;49.478;10.986;2023-04-04T05:16:04;99319.53;;;0.03;100.00
70815;BME280;58428;49.478;10.986;2023-04-04T05:18:29;99328.66;;;0.07;100.00
70815;BME280;58428;49.478;10.986;2023-04-04T05:20:55;99328.78;;;0.12;100.00
70815;BME280;58428;49.478;10.986;2023-04-04T05:23:23;99327.25;;;0.16;100.00
70815;BME280;58428;49.478;10.986;2023-04-04T05:25:49;99331.63;;;0.22;100.00
70815;BME280;58428;49.478;10.986;2023-04-04T05:28:19;99335.41;;;0.26;100.00
70815;BME280;58428;49.478;10.986;2023-04-04T05:30:47;99324.66;;;0.21;100.00
70815;BME280;58428;49.478;10.986;2023-04-04T05:33:12;99332.06;;;0.19;100.00
70815;BME280;58428;49.478;10.986;2023-04-04T05:35:38;99333.38;;;0.16;100.00
70815;BME280;58428;49.478;10.986;2023-04-04T05:38:08;99328.84;;;0.17;100.00
70815;BME280;58428;49.478;10.986;2023-04-04T05:40:34;99329.97;;;0.21;100.00
70815;BME280;58428;49.478;10.986;2023-04-04T05:42:59;99328.38;;;0.20;100.00
70815;BME280;58428;49.478;10.986;2023-04-04T05:45:29;99333.72;;;0.20;100.00
70815;BME280;58428;49.478;10.986;2023-04-04T05:47:54;99335.19;;;0.27;100.00
70815;BME280;58428;49.478;10.986;2023-04-04T05:50:20;99344.16;;;0.37;100.00
70815;BME280;58428;49.478;10.986;2023-04-04T05:52:45;99338.44;;;0.45;100.00
70815;BME280;58428;49.478;10.986;2023-04-04T05:55:11;99334.97;;;0.45;100.00
70815;BME280;58428;49.478;10.986;2023-04-04T05:57:36;99337.53;;;0.40;100.00
70815;BME280;58428;49.478;10.986;2023-04-04T06:00:03;99340.03;;;0.46;100.00
70815;BME280;58428;49.478;10.986;2023-04-04T06:02:30;99343.13;;;0.55;100.00
70815;BME280;58428;49.478;10.986;2023-04-04T06:04:56;99341.44;;;0.49;100.00
70815;BME280;58428;49.478;10.986;2023-04-04T06:07:24;99339.66;;;0.54;100.00
70815;BME280;58428;49.478;10.986;2023-04-04T06:09:50;99349.44;;;0.65;100.00
70815;BME280;58428;49.478;10.986;2023-04-04T06:12:18;99348.78;;;0.74;100.00
70815;BME280;58428;49.478;10.986;2023-04-04T06:14:43;99343.63;;;0.84;100.00
70815;BME280;58428;49.478;10.986;2023-04-04T06:17:09;99344.75;;;0.88;100.00
70815;BME280;58428;49.478;10.986;2023-04-04T06:19:34;99337.91;;;0.92;100.00
70815;BME280;58428;49.478;10.986;2023-04-04T06:22:00;99341.69;;;0.96;100.00
70815;BME280;58428;49.478;10.986;2023-04-04T06:24:31;99347.44;;;1.05;100.00
70815;BME280;58428;49.478;10.986;2023-04-04T06:26:56;99346.47;;;1.10;100.00
70815;BME280;58428;49.478;10.986;2023-04-04T06:29:22;99337.00;;;1.19;100.00
70815;BME280;58428;49.478;10.986;2023-04-04T06:31:48;99335.00;;;1.26;100.00
70815;BME280;58428;49.478;10.986;2023-04-04T06:34:16;99345.69;;;1.31;100.00
70815;BME280;58428;49.478;10.986;2023-04-04T06:36:45;99347.38;;;1.37;100.00
70815;BME280;58428;49.478;10.986;2023-04-04T06:39:10;99343.75;;;1.43;100.00
70815;BME280;58428;49.478;10.986;2023-04-04T06:41:38;99342.84;;;1.54;100.00
70815;BME280;58428;49.478;10.986;2023-04-04T06:44:03;99340.06;;;1.65;100.00
70815;BME280;58428;49.478;10.986;2023-04-04T06:46:32;99344.34;;;1.66;100.00
70815;BME280;58428;49.478;10.986;2023-04-04T06:49:17;99340.50;;;1.79;100.00
70815;BME280;58428;49.478;10.986;2023-04-04T06:51:43;99338.78;;;1.89;100.00
70815;BME280;58428;49.478;10.986;2023-04-04T06:54:09;99344.19;;;1.94;100.00
70815;BME280;58428;49.478;10.986;2023-04-04T06:56:35;99338.44;;;2.07;100.00
70815;BME280;58428;49.478;10.986;2023-04-04T06:59:03;99336.66;;;2.12;100.00
70815;BME280;58428;49.478;10.986;2023-04-04T07:01:32;99336.72;;;2.17;100.00
70815;BME280;58428;49.478;10.986;2023-04-04T07:04:04;99335.03;;;2.32;100.00
70815;BME280;58428;49.478;10.986;2023-04-04T07:06:29;99339.03;;;2.35;100.00
70815;BME280;58428;49.478;10.986;2023-04-04T07:08:55;99338.81;;;2.36;100.00
70815;BME280;58428;49.478;10.986;2023-04-04T07:11:32;99330.63;;;2.48;100.00
70815;BME280;58428;49.478;10.986;2023-04-04T07:14:01;99337.38;;;2.55;100.00
70815;BME280;58428;49.478;10.986;2023-04-04T07:16:30;99332.41;;;2.63;100.00
70815;BME280;58428;49.478;10.986;2023-04-04T07:18:55;99329.81;;;2.73;100.00
70815;BME280;58428;49.478;10.986;2023-04-04T07:21:21;99335.66;;;2.70;100.00
70815;BME280;58428;49.478;10.986;2023-04-04T07:23:50;99336.75;;;2.74;100.00
70815;BME280;58428;49.478;10.986;2023-04-04T07:26:15;99341.94;;;2.86;100.00
70815;BME280;58428;49.478;10.986;2023-04-04T07:28:41;99336.72;;;3.00;100.00
70815;BME280;58428;49.478;10.986;2023-04-04T07:31:12;99333.84;;;3.07;100.00
70815;BME280;58428;49.478;10.986;2023-04-04T07:33:42;99338.75;;;3.20;100.00
70815;BME280;58428;49.478;10.986;2023-04-04T07:36:10;99341.44;;;3.20;100.00
70815;BME280;58428;49.478;10.986;2023-04-04T07:38:41;99337.72;;;3.26;100.00
70815;BME280;58428;49.478;10.986;2023-04-04T07:41:08;99339.69;;;3.40;100.00
70815;BME280;58428;49.478;10.986;2023-04-04T07:43:38;99336.56;;;3.53;100.00
70815;BME280;58428;49.478;10.986;2023-04-04T07:46:03;99341.94;;;3.58;100.00
70815;BME280;58428;49.478;10.986;2023-04-04T07:48:32;99340.63;;;3.60;100.00
70815;BME280;58428;49.478;10.986;2023-04-04T07:51:21;99339.06;;;3.69;100.00
70815;BME280;58428;49.478;10.986;2023-04-04T07:53:53;99328.44;;;3.84;100.00
70815;BME280;58428;49.478;10.986;2023-04-04T07:56:19;99329.50;;;3.83;100.00
70815;BME280;58428;49.478;10.986;2023-04-04T07:58:46;99327.69;;;3.98;100.00
70815;BME280;58428;49.478;10.986;2023-04-04T08:01:15;99340.38;;;4.22;100.00
70815;BME280;58428;49.478;10.986;2023-04-04T08:03:40;99323.25;;;4.33;100.00
70815;BME280;58428;49.478;10.986;2023-04-04T08:06:06;99331.88;;;4.50;100.00
70815;BME280;58428;49.478;10.986;2023-04-04T08:08:32;99340.75;;;4.75;100.00
70815;BME280;58428;49.478;10.986;2023-04-04T08:11:02;99336.75;;;4.87;100.00
70815;BME280;58428;49.478;10.986;2023-04-04T08:16:14;99331.13;;;5.13;100.00
70815;BME280;58428;49.478;10.986;2023-04-04T08:21:33;99323.56;;;5.60;98.30
70815;BME280;58428;49.478;10.986;2023-04-04T08:24:01;99319.50;;;5.77;94.39
70815;BME280;58428;49.478;10.986;2023-04-04T08:29:17;99322.69;;;5.84;92.03
70815;BME280;58428;49.478;10.986;2023-04-04T08:32:06;99321.06;;;5.93;88.73
70815;BME280;58428;49.478;10.986;2023-04-04T08:34:37;99321.06;;;5.88;85.18
70815;BME280;58428;49.478;10.986;2023-04-04T08:37:30;99322.66;;;5.99;86.86
70815;BME280;58428;49.478;10.986;2023-04-04T08:43:08;99316.22;;;6.53;89.13
70815;BME280;58428;49.478;10.986;2023-04-04T08:45:37;99315.56;;;6.65;87.39
70815;BME280;58428;49.478;10.986;2023-04-04T08:48:06;99323.78;;;6.84;86.66
70815;BME280;58428;49.478;10.986;2023-04-04T08:50:39;99321.81;;;6.94;84.20
70815;BME280;58428;49.478;10.986;2023-04-04T08:53:14;99315.91;;;6.92;83.44
70815;BME280;58428;49.478;10.986;2023-04-04T08:55:40;99323.31;;;7.10;82.41
70815;BME280;58428;49.478;10.986;2023-04-04T09:01:01;99316.25;;;6.86;79.06
70815;BME280;58428;49.478;10.986;2023-04-04T09:03:31;99321.91;;;6.84;81.34
70815;BME280;58428;49.478;10.986;2023-04-04T09:06:13;99321.13;;;6.79;80.44
70815;BME280;58428;49.478;10.986;2023-04-04T09:09:02;99321.22;;;7.02;82.62
70815;BME280;58428;49.478;10.986;2023-04-04T09:11:33;99311.41;;;6.88;80.90
70815;BME280;58428;49.478;10.986;2023-04-04T09:14:05;99316.00;;;7.15;81.11
70815;BME280;58428;49.478;10.986;2023-04-04T09:16:49;99311.94;;;7.18;81.44
70815;BME280;58428;49.478;10.986;2023-04-04T09:19:21;99318.78;;;7.05;77.60
70815;BME280;58428;49.478;10.986;2023-04-04T09:21:49;99313.91;;;7.07;78.57
70815;BME280;58428;49.478;10.986;2023-04-04T09:24:18;99316.94;;;7.01;79.86
70815;BME280;58428;49.478;10.986;2023-04-04T09:26:47;99316.59;;;7.07;75.56
70815;BME280;58428;49.478;10.986;2023-04-04T09:29:25;99316.09;;;7.05;76.94
70815;BME280;58428;49.478;10.986;2023-04-04T09:31:55;99321.88;;;6.89;76.62
70815;BME280;58428;49.478;10.986;2023-04-04T09:34:21;99317.47;;;6.65;76.62
70815;BME280;58428;49.478;10.986;2023-04-04T09:37:05;99323.03;;;6.78;75.67
70815;BME280;58428;49.478;10.986;2023-04-04T09:39:36;99314.81;;;6.98;77.74
70815;BME280;58428;49.478;10.986;2023-04-04T09:42:11;99319.56;;;7.06;76.47
70815;BME280;58428;49.478;10.986;2023-04-04T09:44:55;99313.41;;;7.05;77.32
70815;BME280;58428;49.478;10.986;2023-04-04T09:47:29;99313.88;;;7.12;75.12
70815;BME280;58428;49.478;10.986;2023-04-04T09:49:58;99313.31;;;7.15;75.29
70815;BME280;58428;49.478;10.986;2023-04-04T09:52:40;99311.72;;;7.14;74.55
70815;BME280;58428;49.478;10.986;2023-04-04T09:55:08;99314.34;;;7.19;76.12
70815;BME280;58428;49.478;10.986;2023-04-04T09:57:37;99316.84;;;7.39;74.65
70815;BME280;58428;49.478;10.986;2023-04-04T10:00:12;99316.72;;;7.54;75.12
70815;BME280;58428;49.478;10.986;2023-04-04T10:02:46;99308.66;;;7.77;74.33
70815;BME280;58428;49.478;10.986;2023-04-04T10:05:13;99305.84;;;7.87;75.12
70815;BME280;58428;49.478;10.986;2023-04-04T10:07:41;99306.00;;;7.95;71.12
70815;BME280;58428;49.478;10.986;2023-04-04T10:10:08;99314.94;;;8.19;73.84
70815;BME280;58428;49.478;10.986;2023-04-04T10:12:44;99308.47;;;8.38;71.54
70815;BME280;58428;49.478;10.986;2023-04-04T10:15:13;99309.00;;;8.58;70.79
70815;BME280;58428;49.478;10.986;2023-04-04T10:17:45;99307.91;;;8.78;70.58
70815;BME280;58428;49.478;10.986;2023-04-04T10:20:17;99301.69;;;8.59;63.98
70815;BME280;58428;49.478;10.986;2023-04-04T10:22:47;99310.25;;;8.01;61.64
70815;BME280;58428;49.478;10.986;2023-04-04T10:25:14;99298.44;;;7.74;67.84
70815;BME280;58428;49.478;10.986;2023-04-04T10:27:40;99296.56;;;7.51;66.48
70815;BME280;58428;49.478;10.986;2023-04-04T10:30:06;99294.38;;;7.53;69.03
70815;BME280;58428;49.478;10.986;2023-04-04T10:32:42;99293.25;;;7.59;67.93
70815;BME280;58428;49.478;10.986;2023-04-04T10:35:09;99295.47;;;7.75;70.88
70815;BME280;58428;49.478;10.986;2023-04-04T10:38:04;99288.03;;;7.91;67.63
70815;BME280;58428;49.478;10.986;2023-04-04T10:40:35;99291.69;;;8.00;68.43
70815;BME280;58428;49.478;10.986;2023-04-04T10:43:04;99283.53;;;8.05;65.18
70815;BME280;58428;49.478;10.986;2023-04-04T10:45:35;99280.13;;;8.41;68.75
70815;BME280;58428;49.478;10.986;2023-04-04T10:48:04;99281.22;;;9.08;61.65
70815;BME280;58428;49.478;10.986;2023-04-04T10:50:30;99282.94;;;9.17;63.27
70815;BME280;58428;49.478;10.986;2023-04-04T10:52:59;99273.44;;;9.51;63.68
70815;BME280;58428;49.478;10.986;2023-04-04T10:55:36;99268.72;;;9.43;61.56
70815;BME280;58428;49.478;10.986;2023-04-04T10:58:08;99281.41;;;8.80;61.86
70815;BME280;58428;49.478;10.986;2023-04-04T11:00:48;99283.84;;;8.81;64.50
70815;BME280;58428;49.478;10.986;2023-04-04T11:03:17;99287.38;;;8.22;63.74
70815;BME280;58428;49.478;10.986;2023-04-04T11:05:43;99271.09;;;7.85;65.05
70815;BME280;58428;49.478;10.986;2023-04-04T11:08:18;99278.91;;;8.10;65.25
70815;BME280;58428;49.478;10.986;2023-04-04T11:10:49;99279.81;;;8.24;66.52
70815;BME280;58428;49.478;10.986;2023-04-04T11:13:25;99284.91;;;8.02;62.68
70815;BME280;58428;49.478;10.986;2023-04-04T11:16:11;99279.75;;;8.06;65.50
70815;BME280;58428;49.478;10.986;2023-04-04T11:21:19;99274.44;;;7.77;65.48
70815;BME280;58428;49.478;10.986;2023-04-04T11:24:22;99278.13;;;7.86;64.35
70815;BME280;58428;49.478;10.986;2023-04-04T11:26:52;99270.47;;;8.16;64.25
70815;BME280;58428;49.478;10.986;2023-04-04T11:29:59;99268.75;;;8.43;63.21
70815;BME280;58428;49.478;10.986;2023-04-04T11:32:49;99265.34;;;8.38;61.35
70815;BME280;58428;49.478;10.986;2023-04-04T11:35:23;99270.22;;;8.54;61.17
70815;BME280;58428;49.478;10.986;2023-04-04T11:37:59;99276.59;;;8.22;58.26
70815;BME280;58428;49.478;10.986;2023-04-04T11:41:07;99262.38;;;8.16;61.62
70815;BME280;58428;49.478;10.986;2023-04-04T11:43:46;99264.31;;;8.34;61.20
70815;BME280;58428;49.478;10.986;2023-04-04T11:46:46;99258.03;;;8.20;59.62
70815;BME280;58428;49.478;10.986;2023-04-04T11:55:23;99240.41;;;8.96;59.02
70815;BME280;58428;49.478;10.986;2023-04-04T11:58:20;99234.88;;;9.32;61.65
70815;BME280;58428;49.478;10.986;2023-04-04T12:01:08;99232.03;;;9.95;57.43
70815;BME280;58428;49.478;10.986;2023-04-04T12:03:41;99232.53;;;9.97;54.08
70815;BME280;58428;49.478;10.986;2023-04-04T12:06:11;99239.88;;;9.25;54.17
70815;BME280;58428;49.478;10.986;2023-04-04T12:08:50;99242.09;;;9.23;57.62
70815;BME280;58428;49.478;10.986;2023-04-04T12:11:23;99239.59;;;9.40;59.65
70815;BME280;58428;49.478;10.986;2023-04-04T12:14:16;99237.56;;;9.19;56.59
70815;BME280;58428;49.478;10.986;2023-04-04T12:16:51;99234.81;;;8.92;57.89
70815;BME280;58428;49.478;10.986;2023-04-04T12:19:34;99239.09;;;8.62;57.77
70815;BME280;58428;49.478;10.986;2023-04-04T12:22:16;99242.06;;;8.60;60.33
70815;BME280;58428;49.478;10.986;2023-04-04T12:24:48;99235.66;;;8.56;61.57
70815;BME280;58428;49.478;10.986;2023-04-04T12:27:26;99235.72;;;8.70;61.09
70815;BME280;58428;49.478;10.986;2023-04-04T12:29:57;99232.34;;;8.78;60.08
70815;BME280;58428;49.478;10.986;2023-04-04T12:32:30;99235.28;;;8.81;61.80
70815;BME280;58428;49.478;10.986;2023-04-04T12:35:05;99226.00;;;9.32;62.26
70815;BME280;58428;49.478;10.986;2023-04-04T12:37:39;99223.78;;;9.34;58.37
70815;BME280;58428;49.478;10.986;2023-04-04T12:40:31;99222.69;;;8.90;57.94
70815;BME280;58428;49.478;10.986;2023-04-04T12:42:59;99222.53;;;8.68;58.81
70815;BME280;58428;49.478;10.986;2023-04-04T12:48:34;99221.88;;;8.40;58.60
70815;BME280;58428;49.478;10.986;2023-04-04T12:54:05;99201.59;;;9.63;63.46
70815;BME280;58428;49.478;10.986;2023-04-04T12:56:43;99203.69;;;9.80;57.57
70815;BME280;58428;49.478;10.986;2023-04-04T12:59:35;99196.09;;;9.42;56.38
70815;BME280;58428;49.478;10.986;2023-04-04T13:02:22;99195.50;;;9.31;57.21
70815;BME280;58428;49.478;10.986;2023-04-04T13:08:12;99190.69;;;8.83;59.72
70815;BME280;58428;49.478;10.986;2023-04-04T13:11:04;99188.69;;;8.76;61.99
70815;BME280;58428;49.478;10.986;2023-04-04T13:13:44;99195.72;;;8.04;62.02
70815;BME280;58428;49.478;10.986;2023-04-04T13:23:04;99187.53;;;8.08;62.52
70815;BME280;58428;49.478;10.986;2023-04-04T13:25:34;99183.13;;;8.36;63.28
70815;BME280;58428;49.478;10.986;2023-04-04T13:28:28;99185.97;;;8.26;60.67
70815;BME280;58428;49.478;10.986;2023-04-04T13:33:47;99164.66;;;8.61;63.09
70815;BME280;58428;49.478;10.986;2023-04-04T13:36:29;99175.94;;;8.63;59.55
70815;BME280;58428;49.478;10.986;2023-04-04T13:39:16;99171.84;;;8.97;58.49
70815;BME280;58428;49.478;10.986;2023-04-04T13:41:56;99170.19;;;8.82;58.66
70815;BME280;58428;49.478;10.986;2023-04-04T13:44:33;99159.34;;;9.01;56.58
70815;BME280;58428;49.478;10.986;2023-04-04T13:47:04;99169.16;;;8.97;56.25
70815;BME280;58428;49.478;10.986;2023-04-04T13:49:39;99164.19;;;9.30;56.73
70815;BME280;58428;49.478;10.986;2023-04-04T13:52:07;99155.28;;;9.56;59.89
70815;BME280;58428;49.478;10.986;2023-04-04T13:54:38;99158.41;;;9.37;56.18
70815;BME280;58428;49.478;10.986;2023-04-04T13:59:56;99160.53;;;8.95;59.58
70815;BME280;58428;49.478;10.986;2023-04-04T14:02:25;99154.63;;;8.80;60.50
70815;BME280;58428;49.478;10.986;2023-04-04T14:04:53;99153.50;;;8.67;59.57
70815;BME280;58428;49.478;10.986;2023-04-04T14:07:21;99146.13;;;8.86;61.95
70815;BME280;58428;49.478;10.986;2023-04-04T14:09:47;99153.16;;;9.00;61.47
70815;BME280;58428;49.478;10.986;2023-04-04T14:15:03;99150.44;;;8.87;59.91
70815;BME280;58428;49.478;10.986;2023-04-04T14:17:35;99148.50;;;8.74;60.36
70815;BME280;58428;49.478;10.986;2023-04-04T14:20:01;99153.84;;;8.61;60.89
70815;BME280;58428;49.478;10.986;2023-04-04T14:22:39;99145.72;;;8.47;60.30
70815;BME280;58428;49.478;10.986;2023-04-04T14:25:04;99153.22;;;8.50;60.36
70815;BME280;58428;49.478;10.986;2023-04-04T14:27:42;99146.69;;;8.70;61.57
70815;BME280;58428;49.478;10.986;2023-04-04T14:30:29;99142.94;;;8.52;61.97
70815;BME280;58428;49.478;10.986;2023-04-04T14:32:54;99143.47;;;8.54;64.03
70815;BME280;58428;49.478;10.986;2023-04-04T14:35:25;99138.91;;;8.68;63.47
70815;BME280;58428;49.478;10.986;2023-04-04T14:38:06;99129.84;;;8.91;63.93
70815;BME280;58428;49.478;10.986;2023-04-04T14:40:31;99125.59;;;9.43;64.96
70815;BME280;58428;49.478;10.986;2023-04-04T14:43:05;99125.56;;;9.70;60.35
70815;BME280;58428;49.478;10.986;2023-04-04T14:45:34;99130.06;;;9.48;58.27
70815;BME280;58428;49.478;10.986;2023-04-04T14:48:08;99132.47;;;9.36;60.27
70815;BME280;58428;49.478;10.986;2023-04-04T14:50:36;99136.34;;;8.90;60.91
70815;BME280;58428;49.478;10.986;2023-04-04T14:53:05;99135.84;;;8.88;60.93
70815;BME280;58428;49.478;10.986;2023-04-04T14:58:20;99131.53;;;8.74;60.27
70815;BME280;58428;49.478;10.986;2023-04-04T15:00:48;99125.31;;;8.42;60.56
70815;BME280;58428;49.478;10.986;2023-04-04T15:03:16;99131.25;;;8.07;63.79
70815;BME280;58428;49.478;10.986;2023-04-04T15:05:41;99139.78;;;7.96;64.59
70815;BME280;58428;49.478;10.986;2023-04-04T15:08:13;99136.28;;;7.95;64.41
70815;BME280;58428;49.478;10.986;2023-04-04T15:10:54;99133.72;;;7.85;66.18
70815;BME280;58428;49.478;10.986;2023-04-04T15:13:38;99123.13;;;7.94;67.84
70815;BME280;58428;49.478;10.986;2023-04-04T15:18:39;99126.22;;;7.64;69.94
70815;BME280;58428;49.478;10.986;2023-04-04T15:21:11;99122.94;;;7.67;70.96
70815;BME280;58428;49.478;10.986;2023-04-04T15:23:49;99119.31;;;7.76;68.91
70815;BME280;58428;49.478;10.986;2023-04-04T15:26:30;99123.97;;;7.71;69.03
70815;BME280;58428;49.478;10.986;2023-04-04T15:28:59;99121.00;;;7.91;67.22
70815;BME280;58428;49.478;10.986;2023-04-04T15:31:29;99124.69;;;7.95;66.26
70815;BME280;58428;49.478;10.986;2023-04-04T15:33:57;99119.75;;;8.02;65.66